Gifford, Arkansas
Current Conditions -  °F | °C
As of 7:53 AM on Saturday 22 Nov 2014 (Local Time) from KHOT Reporting Station
Overcast Overcast  
Wind Chill: 54°   Ceiling: 1500
Heat Index: 54°   Visibility: 10mi
Dew Point: 49°   Wind: 10mph
Humidity: 83%   Direction: 170°S
Pressure: 30.19"   Gusts: NA
Location:  34.3189°N, 92.8629°W
Report Text: KHOT 221353Z AUTO 17009KT 120V190 10SM OVC015 12/09 A3019 RMK AO2 SLP221 T01220094
Loading
Personal Weather Stations






























Interactive Weather Map New forecast layout! Learn more

10-Day Weather Forecast

Advertisements
Track Severe Weather on mobile